sensor_id;sensor_type;location;lat;lon;timestamp;P1;durP1;ratioP1;P2;durP2;ratioP2
17741;SDS011;8993;51.822;-2.268;2022-09-12T00:04:05;7.75;;;4.28;;
17741;SDS011;8993;51.822;-2.268;2022-09-12T00:09:11;7.45;;;3.22;;
17741;SDS011;8993;51.822;-2.268;2022-09-12T00:14:15;9.07;;;3.12;;
17741;SDS011;8993;51.822;-2.268;2022-09-12T00:19:18;6.82;;;2.89;;
17741;SDS011;8993;51.822;-2.268;2022-09-12T00:24:22;8.09;;;3.48;;
17741;SDS011;8993;51.822;-2.268;2022-09-12T00:29:27;7.16;;;3.04;;
17741;SDS011;8993;51.822;-2.268;2022-09-12T00:34:31;8.62;;;3.56;;
17741;SDS011;8993;51.822;-2.268;2022-09-12T00:39:36;10.47;;;4.02;;
17741;SDS011;8993;51.822;-2.268;2022-09-12T00:44:42;9.68;;;4.26;;
17741;SDS011;8993;51.822;-2.268;2022-09-12T00:49:47;9.18;;;4.91;;
17741;SDS011;8993;51.822;-2.268;2022-09-12T00:54:50;11.29;;;5.25;;
17741;SDS011;8993;51.822;-2.268;2022-09-12T00:59:54;11.46;;;6.23;;
17741;SDS011;8993;51.822;-2.268;2022-09-12T01:04:58;11.08;;;5.84;;
17741;SDS011;8993;51.822;-2.268;2022-09-12T01:10:02;11.33;;;5.62;;
17741;SDS011;8993;51.822;-2.268;2022-09-12T01:15:07;11.92;;;6.11;;
17741;SDS011;8993;51.822;-2.268;2022-09-12T01:21:09;10.88;;;5.89;;
17741;SDS011;8993;51.822;-2.268;2022-09-12T01:25:17;10.70;;;5.50;;
17741;SDS011;8993;51.822;-2.268;2022-09-12T01:30:22;10.34;;;4.80;;
17741;SDS011;8993;51.822;-2.268;2022-09-12T01:35:27;8.42;;;4.34;;
17741;SDS011;8993;51.822;-2.268;2022-09-12T01:40:31;6.94;;;3.40;;
17741;SDS011;8993;51.822;-2.268;2022-09-12T01:45:36;9.32;;;3.85;;
17741;SDS011;8993;51.822;-2.268;2022-09-12T01:50:39;8.67;;;4.06;;
17741;SDS011;8993;51.822;-2.268;2022-09-12T01:55:44;7.42;;;3.83;;
17741;SDS011;8993;51.822;-2.268;2022-09-12T02:00:47;7.19;;;3.79;;
17741;SDS011;8993;51.822;-2.268;2022-09-12T02:05:53;8.53;;;4.02;;
17741;SDS011;8993;51.822;-2.268;2022-09-12T02:10:56;9.84;;;4.24;;
17741;SDS011;8993;51.822;-2.268;2022-09-12T02:16:00;9.21;;;4.14;;
17741;SDS011;8993;51.822;-2.268;2022-09-12T02:21:04;9.22;;;4.23;;
17741;SDS011;8993;51.822;-2.268;2022-09-12T02:26:09;7.79;;;3.87;;
17741;SDS011;8993;51.822;-2.268;2022-09-12T02:31:16;12.27;;;6.00;;
17741;SDS011;8993;51.822;-2.268;2022-09-12T02:36:20;12.10;;;7.12;;
17741;SDS011;8993;51.822;-2.268;2022-09-12T02:41:22;8.58;;;5.88;;
17741;SDS011;8993;51.822;-2.268;2022-09-12T02:46:27;8.14;;;4.98;;
17741;SDS011;8993;51.822;-2.268;2022-09-12T02:51:30;5.91;;;3.58;;
17741;SDS011;8993;51.822;-2.268;2022-09-12T02:56:39;8.69;;;4.11;;
17741;SDS011;8993;51.822;-2.268;2022-09-12T03:01:43;10.20;;;4.47;;
17741;SDS011;8993;51.822;-2.268;2022-09-12T03:06:46;7.43;;;3.74;;
17741;SDS011;8993;51.822;-2.268;2022-09-12T03:12:00;5.86;;;3.10;;
17741;SDS011;8993;51.822;-2.268;2022-09-12T03:16:55;5.98;;;3.39;;
17741;SDS011;8993;51.822;-2.268;2022-09-12T03:21:59;3.17;;;2.29;;
17741;SDS011;8993;51.822;-2.268;2022-09-12T03:27:03;6.83;;;3.52;;
17741;SDS011;8993;51.822;-2.268;2022-09-12T03:32:05;7.57;;;4.35;;
17741;SDS011;8993;51.822;-2.268;2022-09-12T03:37:09;10.50;;;6.13;;
17741;SDS011;8993;51.822;-2.268;2022-09-12T03:42:14;13.23;;;7.12;;
17741;SDS011;8993;51.822;-2.268;2022-09-12T03:47:20;9.96;;;6.22;;
17741;SDS011;8993;51.822;-2.268;2022-09-12T03:52:24;11.23;;;6.54;;
17741;SDS011;8993;51.822;-2.268;2022-09-12T03:57:28;15.08;;;9.09;;
17741;SDS011;8993;51.822;-2.268;2022-09-12T04:02:33;10.25;;;7.18;;
17741;SDS011;8993;51.822;-2.268;2022-09-12T04:07:37;17.58;;;10.38;;
17741;SDS011;8993;51.822;-2.268;2022-09-12T04:12:41;19.80;;;11.09;;
17741;SDS011;8993;51.822;-2.268;2022-09-12T04:17:45;20.01;;;11.48;;
17741;SDS011;8993;51.822;-2.268;2022-09-12T04:22:50;19.04;;;11.54;;
17741;SDS011;8993;51.822;-2.268;2022-09-12T04:27:54;19.28;;;11.65;;
17741;SDS011;8993;51.822;-2.268;2022-09-12T04:32:58;18.41;;;11.30;;
17741;SDS011;8993;51.822;-2.268;2022-09-12T04:38:06;17.10;;;10.24;;
17741;SDS011;8993;51.822;-2.268;2022-09-12T04:43:10;16.25;;;10.11;;
17741;SDS011;8993;51.822;-2.268;2022-09-12T04:48:15;12.32;;;8.62;;
17741;SDS011;8993;51.822;-2.268;2022-09-12T04:53:19;14.83;;;9.46;;
17741;SDS011;8993;51.822;-2.268;2022-09-12T04:58:23;20.81;;;12.00;;
17741;SDS011;8993;51.822;-2.268;2022-09-12T05:03:28;21.27;;;12.46;;
17741;SDS011;8993;51.822;-2.268;2022-09-12T05:08:32;22.12;;;13.65;;
17741;SDS011;8993;51.822;-2.268;2022-09-12T05:13:36;25.69;;;15.15;;
17741;SDS011;8993;51.822;-2.268;2022-09-12T05:18:41;23.01;;;14.00;;
17741;SDS011;8993;51.822;-2.268;2022-09-12T05:23:45;23.36;;;14.40;;
17741;SDS011;8993;51.822;-2.268;2022-09-12T05:28:50;20.33;;;12.75;;
17741;SDS011;8993;51.822;-2.268;2022-09-12T05:33:54;16.67;;;11.17;;
17741;SDS011;8993;51.822;-2.268;2022-09-12T05:38:58;16.91;;;11.35;;
17741;SDS011;8993;51.822;-2.268;2022-09-12T05:44:04;14.09;;;8.95;;
17741;SDS011;8993;51.822;-2.268;2022-09-12T05:49:07;13.48;;;8.09;;
17741;SDS011;8993;51.822;-2.268;2022-09-12T05:54:11;10.53;;;7.47;;
17741;SDS011;8993;51.822;-2.268;2022-09-12T05:59:16;12.41;;;8.17;;
17741;SDS011;8993;51.822;-2.268;2022-09-12T06:04:19;9.61;;;6.52;;
17741;SDS011;8993;51.822;-2.268;2022-09-12T06:09:24;9.48;;;6.34;;
17741;SDS011;8993;51.822;-2.268;2022-09-12T06:14:28;18.04;;;10.24;;
17741;SDS011;8993;51.822;-2.268;2022-09-12T06:19:33;14.06;;;9.02;;
17741;SDS011;8993;51.822;-2.268;2022-09-12T06:24:37;16.51;;;10.33;;
17741;SDS011;8993;51.822;-2.268;2022-09-12T06:29:41;16.98;;;10.15;;
17741;SDS011;8993;51.822;-2.268;2022-09-12T06:34:46;23.04;;;13.71;;
17741;SDS011;8993;51.822;-2.268;2022-09-12T06:39:51;23.56;;;14.17;;
17741;SDS011;8993;51.822;-2.268;2022-09-12T06:44:55;22.21;;;14.03;;
17741;SDS011;8993;51.822;-2.268;2022-09-12T06:49:59;21.63;;;13.23;;
17741;SDS011;8993;51.822;-2.268;2022-09-12T06:55:07;22.37;;;13.74;;
17741;SDS011;8993;51.822;-2.268;2022-09-12T07:00:12;21.11;;;12.96;;
17741;SDS011;8993;51.822;-2.268;2022-09-12T07:05:16;21.78;;;13.06;;
17741;SDS011;8993;51.822;-2.268;2022-09-12T07:10:20;23.71;;;13.59;;
17741;SDS011;8993;51.822;-2.268;2022-09-12T07:15:24;21.51;;;13.41;;
17741;SDS011;8993;51.822;-2.268;2022-09-12T07:20:28;17.68;;;11.53;;
17741;SDS011;8993;51.822;-2.268;2022-09-12T07:25:32;18.40;;;11.61;;
17741;SDS011;8993;51.822;-2.268;2022-09-12T07:30:37;17.75;;;10.77;;
17741;SDS011;8993;51.822;-2.268;2022-09-12T07:35:41;17.93;;;11.44;;
17741;SDS011;8993;51.822;-2.268;2022-09-12T07:40:45;15.45;;;9.87;;
17741;SDS011;8993;51.822;-2.268;2022-09-12T07:45:53;15.18;;;10.03;;
17741;SDS011;8993;51.822;-2.268;2022-09-12T07:50:56;13.44;;;9.04;;
17741;SDS011;8993;51.822;-2.268;2022-09-12T07:55:57;12.93;;;8.82;;
17741;SDS011;8993;51.822;-2.268;2022-09-12T08:01:02;15.39;;;9.82;;
17741;SDS011;8993;51.822;-2.268;2022-09-12T08:06:07;14.61;;;9.31;;
17741;SDS011;8993;51.822;-2.268;2022-09-12T08:11:11;17.12;;;9.46;;
17741;SDS011;8993;51.822;-2.268;2022-09-12T08:16:15;15.76;;;9.29;;
17741;SDS011;8993;51.822;-2.268;2022-09-12T08:21:20;15.58;;;9.13;;
17741;SDS011;8993;51.822;-2.268;2022-09-12T08:26:23;16.03;;;8.48;;
17741;SDS011;8993;51.822;-2.268;2022-09-12T08:31:27;11.66;;;7.23;;
17741;SDS011;8993;51.822;-2.268;2022-09-12T08:36:31;12.67;;;6.81;;
17741;SDS011;8993;51.822;-2.268;2022-09-12T08:41:37;13.21;;;6.65;;
17741;SDS011;8993;51.822;-2.268;2022-09-12T08:46:41;9.37;;;6.07;;
17741;SDS011;8993;51.822;-2.268;2022-09-12T08:51:44;12.37;;;6.84;;
17741;SDS011;8993;51.822;-2.268;2022-09-12T08:56:48;10.38;;;6.06;;
17741;SDS011;8993;51.822;-2.268;2022-09-12T09:01:53;13.50;;;6.99;;
17741;SDS011;8993;51.822;-2.268;2022-09-12T09:07:00;12.52;;;6.89;;
17741;SDS011;8993;51.822;-2.268;2022-09-12T09:12:04;10.44;;;5.61;;
17741;SDS011;8993;51.822;-2.268;2022-09-12T09:17:07;11.43;;;5.64;;
17741;SDS011;8993;51.822;-2.268;2022-09-12T09:22:10;10.39;;;5.27;;
17741;SDS011;8993;51.822;-2.268;2022-09-12T09:27:14;10.29;;;4.69;;
17741;SDS011;8993;51.822;-2.268;2022-09-12T09:32:18;8.26;;;4.90;;
17741;SDS011;8993;51.822;-2.268;2022-09-12T09:37:24;13.32;;;6.65;;
17741;SDS011;8993;51.822;-2.268;2022-09-12T09:42:28;10.06;;;5.65;;
17741;SDS011;8993;51.822;-2.268;2022-09-12T09:47:30;9.76;;;5.15;;
17741;SDS011;8993;51.822;-2.268;2022-09-12T09:52:34;5.97;;;3.97;;
17741;SDS011;8993;51.822;-2.268;2022-09-12T09:57:41;6.99;;;3.77;;
17741;SDS011;8993;51.822;-2.268;2022-09-12T10:02:43;6.94;;;2.87;;
17741;SDS011;8993;51.822;-2.268;2022-09-12T10:07:48;7.59;;;3.30;;
17741;SDS011;8993;51.822;-2.268;2022-09-12T10:12:52;8.17;;;3.22;;
17741;SDS011;8993;51.822;-2.268;2022-09-12T10:17:55;6.76;;;3.26;;
17741;SDS011;8993;51.822;-2.268;2022-09-12T10:23:01;6.58;;;2.52;;
17741;SDS011;8993;51.822;-2.268;2022-09-12T10:28:04;5.83;;;2.49;;
17741;SDS011;8993;51.822;-2.268;2022-09-12T10:33:09;5.48;;;2.48;;
17741;SDS011;8993;51.822;-2.268;2022-09-12T10:38:13;6.69;;;2.39;;
17741;SDS011;8993;51.822;-2.268;2022-09-12T10:43:17;5.25;;;1.95;;
17741;SDS011;8993;51.822;-2.268;2022-09-12T10:48:23;7.37;;;2.98;;
17741;SDS011;8993;51.822;-2.268;2022-09-12T10:53:25;8.10;;;2.80;;
17741;SDS011;8993;51.822;-2.268;2022-09-12T10:58:33;6.63;;;2.48;;
17741;SDS011;8993;51.822;-2.268;2022-09-12T11:03:37;5.91;;;2.00;;
17741;SDS011;8993;51.822;-2.268;2022-09-12T11:08:41;6.31;;;2.29;;
17741;SDS011;8993;51.822;-2.268;2022-09-12T11:13:47;4.63;;;1.77;;
17741;SDS011;8993;51.822;-2.268;2022-09-12T11:18:51;5.65;;;2.11;;
17741;SDS011;8993;51.822;-2.268;2022-09-12T11:23:58;5.26;;;1.85;;
17741;SDS011;8993;51.822;-2.268;2022-09-12T11:28:56;6.17;;;2.09;;
17741;SDS011;8993;51.822;-2.268;2022-09-12T11:33:58;4.85;;;1.79;;
17741;SDS011;8993;51.822;-2.268;2022-09-12T11:39:08;4.91;;;1.63;;
17741;SDS011;8993;51.822;-2.268;2022-09-12T11:44:10;4.51;;;1.84;;
17741;SDS011;8993;51.822;-2.268;2022-09-12T11:49:15;5.90;;;1.73;;
17741;SDS011;8993;51.822;-2.268;2022-09-12T11:54:19;4.54;;;1.65;;
17741;SDS011;8993;51.822;-2.268;2022-09-12T11:59:25;5.81;;;1.28;;
17741;SDS011;8993;51.822;-2.268;2022-09-12T12:04:26;3.04;;;1.15;;
17741;SDS011;8993;51.822;-2.268;2022-09-12T12:09:28;2.91;;;1.20;;
17741;SDS011;8993;51.822;-2.268;2022-09-12T12:14:35;3.42;;;1.35;;
17741;SDS011;8993;51.822;-2.268;2022-09-12T12:19:36;5.61;;;1.43;;
17741;SDS011;8993;51.822;-2.268;2022-09-12T12:25:21;3.57;;;1.42;;
17741;SDS011;8993;51.822;-2.268;2022-09-12T12:29:46;4.88;;;1.42;;
17741;SDS011;8993;51.822;-2.268;2022-09-12T12:34:50;5.08;;;1.81;;
17741;SDS011;8993;51.822;-2.268;2022-09-12T12:39:56;6.45;;;1.61;;
17741;SDS011;8993;51.822;-2.268;2022-09-12T12:44:59;5.83;;;1.52;;
17741;SDS011;8993;51.822;-2.268;2022-09-12T12:50:03;4.84;;;1.73;;
17741;SDS011;8993;51.822;-2.268;2022-09-12T12:55:12;4.64;;;1.57;;
17741;SDS011;8993;51.822;-2.268;2022-09-12T13:00:25;4.73;;;1.45;;
17741;SDS011;8993;51.822;-2.268;2022-09-12T13:05:16;4.29;;;1.35;;
17741;SDS011;8993;51.822;-2.268;2022-09-12T13:10:21;3.21;;;1.29;;
17741;SDS011;8993;51.822;-2.268;2022-09-12T13:15:28;3.34;;;1.35;;
17741;SDS011;8993;51.822;-2.268;2022-09-12T13:20:29;4.06;;;1.16;;
17741;SDS011;8993;51.822;-2.268;2022-09-12T13:25:33;4.20;;;1.10;;
17741;SDS011;8993;51.822;-2.268;2022-09-12T13:30:38;4.61;;;1.41;;
17741;SDS011;8993;51.822;-2.268;2022-09-12T13:35:45;4.33;;;1.46;;
17741;SDS011;8993;51.822;-2.268;2022-09-12T13:40:50;6.03;;;1.48;;
17741;SDS011;8993;51.822;-2.268;2022-09-12T13:45:50;6.11;;;1.58;;
17741;SDS011;8993;51.822;-2.268;2022-09-12T13:50:54;4.89;;;1.49;;
17741;SDS011;8993;51.822;-2.268;2022-09-12T13:55:58;6.54;;;1.59;;
17741;SDS011;8993;51.822;-2.268;2022-09-12T14:01:05;4.85;;;1.54;;
17741;SDS011;8993;51.822;-2.268;2022-09-12T14:06:08;3.19;;;1.09;;
17741;SDS011;8993;51.822;-2.268;2022-09-12T14:11:17;6.33;;;1.59;;
17741;SDS011;8993;51.822;-2.268;2022-09-12T14:16:17;3.54;;;1.34;;
17741;SDS011;8993;51.822;-2.268;2022-09-12T14:21:29;6.03;;;1.64;;
17741;SDS011;8993;51.822;-2.268;2022-09-12T14:26:25;5.30;;;1.67;;
17741;SDS011;8993;51.822;-2.268;2022-09-12T14:31:30;5.05;;;1.61;;
17741;SDS011;8993;51.822;-2.268;2022-09-12T14:36:34;6.10;;;1.68;;
17741;SDS011;8993;51.822;-2.268;2022-09-12T14:41:38;5.82;;;1.41;;
17741;SDS011;8993;51.822;-2.268;2022-09-12T14:46:42;6.26;;;1.47;;
17741;SDS011;8993;51.822;-2.268;2022-09-12T14:51:54;3.92;;;1.19;;
17741;SDS011;8993;51.822;-2.268;2022-09-12T14:56:53;4.72;;;1.20;;
17741;SDS011;8993;51.822;-2.268;2022-09-12T15:02:14;4.26;;;1.28;;
17741;SDS011;8993;51.822;-2.268;2022-09-12T15:07:12;7.40;;;1.35;;
17741;SDS011;8993;51.822;-2.268;2022-09-12T15:12:05;5.48;;;1.08;;
17741;SDS011;8993;51.822;-2.268;2022-09-12T15:17:09;4.23;;;1.11;;
17741;SDS011;8993;51.822;-2.268;2022-09-12T15:22:13;6.05;;;1.09;;
17741;SDS011;8993;51.822;-2.268;2022-09-12T15:27:17;4.05;;;1.03;;
17741;SDS011;8993;51.822;-2.268;2022-09-12T15:32:22;6.95;;;1.01;;
17741;SDS011;8993;51.822;-2.268;2022-09-12T15:37:26;4.24;;;0.95;;
17741;SDS011;8993;51.822;-2.268;2022-09-12T15:42:30;4.01;;;0.91;;
17741;SDS011;8993;51.822;-2.268;2022-09-12T15:47:34;3.43;;;0.92;;
17741;SDS011;8993;51.822;-2.268;2022-09-12T15:52:39;5.18;;;1.00;;
17741;SDS011;8993;51.822;-2.268;2022-09-12T15:57:43;5.24;;;1.25;;
17741;SDS011;8993;51.822;-2.268;2022-09-12T16:02:49;4.40;;;0.99;;
17741;SDS011;8993;51.822;-2.268;2022-09-12T16:07:53;4.01;;;0.95;;
17741;SDS011;8993;51.822;-2.268;2022-09-12T16:12:56;3.96;;;0.83;;
17741;SDS011;8993;51.822;-2.268;2022-09-12T16:18:01;4.36;;;0.93;;
17741;SDS011;8993;51.822;-2.268;2022-09-12T16:23:05;4.64;;;0.95;;
17741;SDS011;8993;51.822;-2.268;2022-09-12T16:28:09;3.84;;;0.98;;
17741;SDS011;8993;51.822;-2.268;2022-09-12T16:33:14;3.81;;;1.10;;
17741;SDS011;8993;51.822;-2.268;2022-09-12T16:38:19;4.13;;;1.04;;
17741;SDS011;8993;51.822;-2.268;2022-09-12T16:43:24;4.58;;;1.15;;
17741;SDS011;8993;51.822;-2.268;2022-09-12T16:48:29;4.39;;;1.24;;
17741;SDS011;8993;51.822;-2.268;2022-09-12T16:53:34;4.25;;;0.95;;
17741;SDS011;8993;51.822;-2.268;2022-09-12T16:58:39;3.32;;;0.98;;
17741;SDS011;8993;51.822;-2.268;2022-09-12T17:03:43;3.95;;;0.98;;
17741;SDS011;8993;51.822;-2.268;2022-09-12T17:08:48;2.31;;;0.82;;
17741;SDS011;8993;51.822;-2.268;2022-09-12T17:13:52;2.14;;;0.82;;
17741;SDS011;8993;51.822;-2.268;2022-09-12T17:18:56;2.39;;;0.87;;
17741;SDS011;8993;51.822;-2.268;2022-09-12T17:24:00;2.76;;;0.94;;
17741;SDS011;8993;51.822;-2.268;2022-09-12T17:29:04;3.75;;;0.82;;
17741;SDS011;8993;51.822;-2.268;2022-09-12T17:34:09;3.69;;;0.94;;
17741;SDS011;8993;51.822;-2.268;2022-09-12T17:39:13;3.09;;;0.92;;
17741;SDS011;8993;51.822;-2.268;2022-09-12T17:44:17;3.40;;;0.95;;
17741;SDS011;8993;51.822;-2.268;2022-09-12T17:49:22;3.83;;;0.97;;
17741;SDS011;8993;51.822;-2.268;2022-09-12T17:54:26;3.50;;;1.04;;
17741;SDS011;8993;51.822;-2.268;2022-09-12T17:59:31;4.53;;;1.41;;
17741;SDS011;8993;51.822;-2.268;2022-09-12T18:04:35;3.90;;;1.33;;
17741;SDS011;8993;51.822;-2.268;2022-09-12T18:09:39;5.04;;;1.52;;
17741;SDS011;8993;51.822;-2.268;2022-09-12T18:14:43;5.72;;;1.55;;
17741;SDS011;8993;51.822;-2.268;2022-09-12T18:19:49;3.31;;;1.18;;
17741;SDS011;8993;51.822;-2.268;2022-09-12T18:24:53;3.52;;;1.16;;
17741;SDS011;8993;51.822;-2.268;2022-09-12T18:29:58;5.14;;;1.51;;
17741;SDS011;8993;51.822;-2.268;2022-09-12T18:35:03;4.98;;;1.48;;
17741;SDS011;8993;51.822;-2.268;2022-09-12T18:40:07;5.82;;;1.81;;
17741;SDS011;8993;51.822;-2.268;2022-09-12T18:45:11;3.61;;;1.51;;
17741;SDS011;8993;51.822;-2.268;2022-09-12T18:50:16;6.21;;;1.71;;
17741;SDS011;8993;51.822;-2.268;2022-09-12T18:55:19;5.83;;;1.86;;
17741;SDS011;8993;51.822;-2.268;2022-09-12T19:00:24;7.09;;;2.25;;
17741;SDS011;8993;51.822;-2.268;2022-09-12T19:05:28;4.76;;;1.90;;
17741;SDS011;8993;51.822;-2.268;2022-09-12T19:10:32;3.43;;;1.68;;
17741;SDS011;8993;51.822;-2.268;2022-09-12T19:15:38;5.28;;;1.97;;
17741;SDS011;8993;51.822;-2.268;2022-09-12T19:20:42;3.70;;;1.81;;
17741;SDS011;8993;51.822;-2.268;2022-09-12T19:25:53;4.63;;;1.83;;
17741;SDS011;8993;51.822;-2.268;2022-09-12T19:30:50;4.51;;;1.97;;
17741;SDS011;8993;51.822;-2.268;2022-09-12T19:35:55;4.73;;;2.28;;
17741;SDS011;8993;51.822;-2.268;2022-09-12T19:41:00;8.12;;;3.78;;
17741;SDS011;8993;51.822;-2.268;2022-09-12T19:46:04;9.58;;;4.59;;
17741;SDS011;8993;51.822;-2.268;2022-09-12T19:51:08;9.20;;;4.40;;
17741;SDS011;8993;51.822;-2.268;2022-09-12T19:56:13;9.08;;;4.89;;
17741;SDS011;8993;51.822;-2.268;2022-09-12T20:01:17;18.07;;;8.45;;
17741;SDS011;8993;51.822;-2.268;2022-09-12T20:06:21;12.57;;;6.35;;
17741;SDS011;8993;51.822;-2.268;2022-09-12T20:11:26;15.72;;;7.43;;
17741;SDS011;8993;51.822;-2.268;2022-09-12T20:16:31;10.23;;;5.35;;
17741;SDS011;8993;51.822;-2.268;2022-09-12T20:21:35;9.59;;;4.92;;
17741;SDS011;8993;51.822;-2.268;2022-09-12T20:26:40;9.87;;;4.70;;
17741;SDS011;8993;51.822;-2.268;2022-09-12T20:31:45;10.59;;;4.99;;
17741;SDS011;8993;51.822;-2.268;2022-09-12T20:36:49;9.73;;;4.75;;
17741;SDS011;8993;51.822;-2.268;2022-09-12T20:41:54;6.84;;;3.99;;
17741;SDS011;8993;51.822;-2.268;2022-09-12T20:46:58;8.32;;;3.99;;
17741;SDS011;8993;51.822;-2.268;2022-09-12T20:52:02;8.68;;;4.02;;
17741;SDS011;8993;51.822;-2.268;2022-09-12T20:57:06;7.79;;;3.91;;
17741;SDS011;8993;51.822;-2.268;2022-09-12T21:02:12;9.28;;;4.20;;
17741;SDS011;8993;51.822;-2.268;2022-09-12T21:07:15;13.98;;;7.26;;
17741;SDS011;8993;51.822;-2.268;2022-09-12T21:12:20;20.15;;;9.11;;
17741;SDS011;8993;51.822;-2.268;2022-09-12T21:17:26;16.72;;;8.23;;
17741;SDS011;8993;51.822;-2.268;2022-09-12T21:22:30;14.25;;;6.46;;
17741;SDS011;8993;51.822;-2.268;2022-09-12T21:27:34;13.52;;;6.12;;
17741;SDS011;8993;51.822;-2.268;2022-09-12T21:32:39;12.21;;;5.73;;
17741;SDS011;8993;51.822;-2.268;2022-09-12T21:37:43;12.92;;;4.98;;
17741;SDS011;8993;51.822;-2.268;2022-09-12T21:42:47;11.34;;;3.46;;
17741;SDS011;8993;51.822;-2.268;2022-09-12T21:47:52;9.42;;;2.87;;
17741;SDS011;8993;51.822;-2.268;2022-09-12T21:52:56;7.68;;;2.32;;
17741;SDS011;8993;51.822;-2.268;2022-09-12T21:58:01;5.02;;;1.82;;
17741;SDS011;8993;51.822;-2.268;2022-09-12T22:03:05;7.25;;;1.76;;
17741;SDS011;8993;51.822;-2.268;2022-09-12T22:08:09;6.88;;;1.67;;
17741;SDS011;8993;51.822;-2.268;2022-09-12T22:13:13;5.46;;;1.73;;
17741;SDS011;8993;51.822;-2.268;2022-09-12T22:18:18;4.56;;;1.71;;
17741;SDS011;8993;51.822;-2.268;2022-09-12T22:23:22;4.69;;;1.51;;
17741;SDS011;8993;51.822;-2.268;2022-09-12T22:28:26;7.28;;;1.96;;
17741;SDS011;8993;51.822;-2.268;2022-09-12T22:33:31;6.37;;;1.58;;
17741;SDS011;8993;51.822;-2.268;2022-09-12T22:38:35;5.27;;;1.61;;
17741;SDS011;8993;51.822;-2.268;2022-09-12T22:43:40;6.05;;;1.76;;
17741;SDS011;8993;51.822;-2.268;2022-09-12T22:48:44;5.25;;;1.81;;
17741;SDS011;8993;51.822;-2.268;2022-09-12T22:53:48;4.46;;;1.76;;
17741;SDS011;8993;51.822;-2.268;2022-09-12T22:58:53;7.19;;;2.61;;
17741;SDS011;8993;51.822;-2.268;2022-09-12T23:03:57;7.31;;;2.98;;
17741;SDS011;8993;51.822;-2.268;2022-09-12T23:09:03;9.15;;;4.15;;
17741;SDS011;8993;51.822;-2.268;2022-09-12T23:14:07;7.93;;;4.91;;
17741;SDS011;8993;51.822;-2.268;2022-09-12T23:19:11;10.24;;;5.65;;
17741;SDS011;8993;51.822;-2.268;2022-09-12T23:24:16;10.93;;;6.29;;
17741;SDS011;8993;51.822;-2.268;2022-09-12T23:29:20;12.33;;;8.48;;
17741;SDS011;8993;51.822;-2.268;2022-09-12T23:34:24;13.58;;;9.27;;
17741;SDS011;8993;51.822;-2.268;2022-09-12T23:39:29;16.13;;;10.18;;
17741;SDS011;8993;51.822;-2.268;2022-09-12T23:44:33;19.17;;;12.26;;
17741;SDS011;8993;51.822;-2.268;2022-09-12T23:49:39;25.32;;;16.33;;
17741;SDS011;8993;51.822;-2.268;2022-09-12T23:54:43;28.03;;;18.69;;
17741;SDS011;8993;51.822;-2.268;2022-09-12T23:59:48;27.92;;;18.80;;
